Time;durP1;ratioP1;P1;durP2;ratioP2;P2;SDS_P1;SDS_P2;PMS_P1;PMS_P2;Temp;Humidity;BMP_temperature;BMP_pressure;BME280_temperature;BME280_humidity;BME280_pressure;Samples;Min_cycle;Max_cycle;Signal;HPM_P1;HPM_P2
2022/06/08 00:00:24;;;;;;;0.00;0.00;;;;;;;;;;1750543;28;20197;-64
2022/06/08 00:01:17;;;;;;;0.00;0.00;;;;;;;;;;1752381;28;20501;-65
2022/06/08 00:02:10;;;;;;;0.00;0.00;;;;;;;;;;1777069;22;20225;-63
2022/06/08 00:03:04;;;;;;;0.00;0.00;;;;;;;;;;1737905;28;20344;-65
2022/06/08 00:03:58;;;;;;;0.00;0.00;;;;;;;;;;1737756;28;20230;-65
2022/06/08 00:04:49;;;;;;;0.00;0.00;;;;;;;;;;1738591;28;20206;-66
2022/06/08 00:05:43;;;;;;;0.00;0.00;;;;;;;;;;1736200;28;20238;-65
2022/06/08 00:06:34;;;;;;;0.00;0.00;;;;;;;;;;1738269;28;20191;-64
2022/06/08 00:07:27;;;;;;;0.00;0.00;;;;;;;;;;1738027;28;20191;-65
2022/06/08 00:08:19;;;;;;;0.00;0.00;;;;;;;;;;1738461;28;20214;-65
2022/06/08 00:09:11;;;;;;;0.00;0.00;;;;;;;;;;1738746;28;20313;-64
2022/06/08 00:10:04;;;;;;;0.00;0.00;;;;;;;;;;1739252;28;20210;-64
2022/06/08 00:10:56;;;;;;;0.00;0.00;;;;;;;;;;1728209;28;20231;-64
2022/06/08 00:11:47;;;;;;;0.00;0.00;;;;;;;;;;1737685;28;20210;-65
2022/06/08 00:12:40;;;;;;;0.00;0.00;;;;;;;;;;1738191;28;20307;-64
2022/06/08 00:13:31;;;;;;;0.00;0.00;;;;;;;;;;1739416;28;20206;-65
2022/06/08 00:14:24;;;;;;;0.00;0.00;;;;;;;;;;1738602;28;20205;-64
2022/06/08 00:15:15;;;;;;;0.00;0.00;;;;;;;;;;1736309;28;20242;-64
2022/06/08 00:16:08;;;;;;;0.00;0.00;;;;;;;;;;1738447;28;20206;-64
2022/06/08 00:17:00;;;;;;;0.00;0.00;;;;;;;;;;1738167;28;20734;-65
2022/06/08 00:17:53;;;;;;;0.00;0.00;;;;;;;;;;1737850;28;20558;-65
2022/06/08 00:18:44;;;;;;;0.00;0.00;;;;;;;;;;1739015;28;20203;-64
2022/06/08 00:19:36;;;;;;;0.00;0.00;;;;;;;;;;1731951;28;20204;-64
2022/06/08 00:20:28;;;;;;;0.00;0.00;;;;;;;;;;1734345;28;20246;-64
2022/06/08 00:21:22;;;;;;;0.00;0.00;;;;;;;;;;1738587;28;20195;-64
2022/06/08 00:22:13;;;;;;;0.00;0.00;;;;;;;;;;1738894;28;20199;-64
2022/06/08 00:23:05;;;;;;;0.00;0.00;;;;;;;;;;1738563;28;20562;-65
2022/06/08 00:23:56;;;;;;;0.00;0.00;;;;;;;;;;1738982;28;20408;-64
2022/06/08 00:24:49;;;;;;;0.00;0.00;;;;;;;;;;1737780;28;20783;-65
2022/06/08 00:25:40;;;;;;;0.00;0.00;;;;;;;;;;1736935;28;20266;-64
2022/06/08 00:26:32;;;;;;;0.00;0.00;;;;;;;;;;1738740;28;20609;-66
2022/06/08 00:27:24;;;;;;;0.00;0.00;;;;;;;;;;1738344;28;20259;-67
2022/06/08 00:28:17;;;;;;;0.00;0.00;;;;;;;;;;1736182;28;20282;-64
2022/06/08 00:29:08;;;;;;;0.00;0.00;;;;;;;;;;1738166;28;20203;-65
2022/06/08 00:30:00;;;;;;;0.00;0.00;;;;;;;;;;1738007;28;20206;-64
2022/06/08 00:30:52;;;;;;;0.00;0.00;;;;;;;;;;1735944;28;20632;-64
2022/06/08 00:31:44;;;;;;;0.00;0.00;;;;;;;;;;1738234;28;20202;-64
2022/06/08 00:32:35;;;;;;;0.00;0.00;;;;;;;;;;1737732;28;20231;-65
2022/06/08 00:33:28;;;;;;;0.00;0.00;;;;;;;;;;1738408;28;20206;-64
2022/06/08 00:34:19;;;;;;;0.00;0.00;;;;;;;;;;1738450;28;20256;-65
2022/06/08 00:35:11;;;;;;;0.00;0.00;;;;;;;;;;1738265;28;20213;-65
2022/06/08 00:36:03;;;;;;;0.00;0.00;;;;;;;;;;1737707;28;20223;-64
2022/06/08 00:36:56;;;;;;;0.00;0.00;;;;;;;;;;1738250;28;20194;-67
2022/06/08 00:37:48;;;;;;;0.00;0.00;;;;;;;;;;1740204;28;20206;-65
2022/06/08 00:38:40;;;;;;;0.00;0.00;;;;;;;;;;1737490;28;20389;-64
2022/06/08 00:39:31;;;;;;;0.00;0.00;;;;;;;;;;1738492;28;20710;-64
2022/06/08 00:40:26;;;;;;;0.00;0.00;;;;;;;;;;1737367;28;20218;-64
2022/06/08 00:41:33;;;;;;;0.00;0.00;;;;;;;;;;1734660;28;20198;-64
2022/06/08 00:42:26;;;;;;;0.00;0.00;;;;;;;;;;1737746;28;20412;-64
2022/06/08 00:43:17;;;;;;;0.00;0.00;;;;;;;;;;1737246;28;20856;-64
2022/06/08 00:44:13;;;;;;;0.00;0.00;;;;;;;;;;1738102;28;20673;-64
2022/06/08 00:45:07;;;;;;;0.00;0.00;;;;;;;;;;1739220;28;20298;-66
2022/06/08 00:45:59;;;;;;;0.00;0.00;;;;;;;;;;1736387;28;20708;-66
2022/06/08 00:46:51;;;;;;;0.00;0.00;;;;;;;;;;1737833;28;20297;-66
2022/06/08 00:47:46;;;;;;;0.00;0.00;;;;;;;;;;1738249;28;20256;-64
2022/06/08 00:48:45;;;;;;;0.00;0.00;;;;;;;;;;1738516;28;20267;-65
2022/06/08 00:49:42;;;;;;;0.00;0.00;;;;;;;;;;1730832;28;20194;-65
2022/06/08 00:50:35;;;;;;;0.00;0.00;;;;;;;;;;1736103;28;20241;-64
2022/06/08 00:51:28;;;;;;;0.00;0.00;;;;;;;;;;1738955;28;20563;-64
2022/06/08 00:52:21;;;;;;;0.00;0.00;;;;;;;;;;1739040;28;20281;-64
2022/06/08 00:53:15;;;;;;;0.00;0.00;;;;;;;;;;1738943;28;20207;-64
2022/06/08 00:54:07;;;;;;;0.00;0.00;;;;;;;;;;1738846;28;20294;-65
2022/06/08 00:55:01;;;;;;;0.00;0.00;;;;;;;;;;1738006;28;20231;-66
2022/06/08 00:55:53;;;;;;;0.00;0.00;;;;;;;;;;1735984;28;20264;-65
2022/06/08 00:56:49;;;;;;;0.00;0.00;;;;;;;;;;1738563;28;20827;-64
2022/06/08 00:57:41;;;;;;;0.00;0.00;;;;;;;;;;1736187;28;20210;-65
2022/06/08 00:58:35;;;;;;;0.00;0.00;;;;;;;;;;1738365;28;20209;-65
2022/06/08 00:59:26;;;;;;;0.00;0.00;;;;;;;;;;1738577;28;20650;-64
2022/06/08 01:00:20;;;;;;;0.00;0.00;;;;;;;;;;1737600;28;20206;-63
2022/06/08 01:01:11;;;;;;;0.00;0.00;;;;;;;;;;1738507;28;20237;-65
2022/06/08 01:02:04;;;;;;;0.00;0.00;;;;;;;;;;1738171;28;20207;-63
2022/06/08 01:02:55;;;;;;;0.00;0.00;;;;;;;;;;1738425;28;20337;-64
2022/06/08 01:03:47;;;;;;;0.00;0.00;;;;;;;;;;1738668;28;20920;-64
2022/06/08 01:04:39;;;;;;;0.00;0.00;;;;;;;;;;1738549;28;20298;-64
2022/06/08 01:05:35;;;;;;;0.00;0.00;;;;;;;;;;1737086;28;20669;-65
2022/06/08 01:06:26;;;;;;;0.00;0.00;;;;;;;;;;1738340;28;20526;-64
2022/06/08 01:07:20;;;;;;;0.00;0.00;;;;;;;;;;1738421;28;20602;-64
2022/06/08 01:08:18;;;;;;;0.00;0.00;;;;;;;;;;1737509;28;20307;-66
2022/06/08 01:09:14;;;;;;;0.00;0.00;;;;;;;;;;1738441;28;20714;-64
2022/06/08 01:10:06;;;;;;;0.00;0.00;;;;;;;;;;1738535;28;20286;-64
2022/06/08 01:11:00;;;;;;;0.00;0.00;;;;;;;;;;1737321;28;20511;-64
2022/06/08 01:11:52;;;;;;;0.00;0.00;;;;;;;;;;1738663;28;20357;-64
2022/06/08 01:12:44;;;;;;;0.00;0.00;;;;;;;;;;1738438;28;20215;-65
2022/06/08 01:13:37;;;;;;;0.00;0.00;;;;;;;;;;1738334;28;20249;-66
2022/06/08 01:14:28;;;;;;;0.00;0.00;;;;;;;;;;1737505;28;20272;-64
2022/06/08 01:15:22;;;;;;;0.00;0.00;;;;;;;;;;1737551;28;20203;-64
2022/06/08 01:16:14;;;;;;;0.00;0.00;;;;;;;;;;1738466;28;20195;-65
2022/06/08 01:17:08;;;;;;;0.00;0.00;;;;;;;;;;1738001;28;20199;-65
2022/06/08 01:17:59;;;;;;;0.00;0.00;;;;;;;;;;1738951;28;20684;-63
2022/06/08 01:18:51;;;;;;;0.00;0.00;;;;;;;;;;1739196;28;20234;-64
2022/06/08 01:19:44;;;;;;;0.00;0.00;;;;;;;;;;1738418;28;20226;-64
2022/06/08 01:20:37;;;;;;;0.00;0.00;;;;;;;;;;1735505;28;20242;-64
2022/06/08 01:21:45;;;;;;;0.00;0.00;;;;;;;;;;1738367;28;20202;-64
2022/06/08 01:22:39;;;;;;;0.00;0.00;;;;;;;;;;1738353;28;20586;-64
2022/06/08 01:23:30;;;;;;;0.00;0.00;;;;;;;;;;1738346;28;20297;-63
2022/06/08 01:24:23;;;;;;;0.00;0.00;;;;;;;;;;1738704;28;20326;-64
2022/06/08 01:25:15;;;;;;;0.00;0.00;;;;;;;;;;1736482;28;20211;-63
2022/06/08 01:26:15;;;;;;;0.00;0.00;;;;;;;;;;1738584;28;20310;-63
2022/06/08 01:27:12;;;;;;;0.00;0.00;;;;;;;;;;1737045;28;20217;-65
2022/06/08 01:28:10;;;;;;;0.00;0.00;;;;;;;;;;1738510;28;20207;-65
2022/06/08 01:29:04;;;;;;;0.00;0.00;;;;;;;;;;1737475;28;20199;-63
2022/06/08 01:30:23;;;;;;;0.00;0.00;;;;;;;;;;1738422;28;20207;-65
2022/06/08 01:31:20;;;;;;;0.00;0.00;;;;;;;;;;1714612;28;20267;-66
2022/06/08 01:32:16;;;;;;;0.00;0.00;;;;;;;;;;1725598;28;20196;-65
2022/06/08 01:33:27;;;;;;;0.00;0.00;;;;;;;;;;1737063;28;20226;-64
2022/06/08 01:34:25;;;;;;;0.00;0.00;;;;;;;;;;1738690;28;20198;-64
2022/06/08 01:35:20;;;;;;;0.00;0.00;;;;;;;;;;1737002;28;20279;-65
2022/06/08 01:36:19;;;;;;;0.00;0.00;;;;;;;;;;1738700;28;20298;-65
2022/06/08 01:37:18;;;;;;;0.00;0.00;;;;;;;;;;1739917;28;20605;-63
2022/06/08 01:38:17;;;;;;;0.00;0.00;;;;;;;;;;1738903;28;20188;-64
2022/06/08 01:39:11;;;;;;;0.00;0.00;;;;;;;;;;1737417;28;20302;-64
2022/06/08 01:40:24;;;;;;;0.00;0.00;;;;;;;;;;1737952;28;20199;-64
2022/06/08 01:41:24;;;;;;;0.00;0.00;;;;;;;;;;1729588;28;20317;-64
2022/06/08 01:42:23;;;;;;;0.00;0.00;;;;;;;;;;1739071;28;20270;-64
2022/06/08 01:43:20;;;;;;;0.00;0.00;;;;;;;;;;1738670;28;20272;-64
2022/06/08 01:44:18;;;;;;;0.00;0.00;;;;;;;;;;1738338;28;20481;-64
2022/06/08 01:45:33;;;;;;;0.00;0.00;;;;;;;;;;1737968;28;20268;-66
2022/06/08 01:46:26;;;;;;;0.00;0.00;;;;;;;;;;1736276;28;20681;-66
2022/06/08 01:47:24;;;;;;;0.00;0.00;;;;;;;;;;1737611;28;20203;-64
2022/06/08 01:48:30;;;;;;;0.00;0.00;;;;;;;;;;1737338;28;20195;-64
2022/06/08 01:49:24;;;;;;;0.00;0.00;;;;;;;;;;1739514;28;20780;-63
2022/06/08 01:50:18;;;;;;;0.00;0.00;;;;;;;;;;1738707;28;20294;-65
2022/06/08 01:51:16;;;;;;;0.00;0.00;;;;;;;;;;1739576;28;20194;-64
2022/06/08 01:52:29;;;;;;;0.00;0.00;;;;;;;;;;1739171;28;20195;-66
2022/06/08 01:53:26;;;;;;;0.00;0.00;;;;;;;;;;1737735;28;20195;-64
2022/06/08 01:54:25;;;;;;;0.00;0.00;;;;;;;;;;1739165;28;20321;-65
2022/06/08 01:55:21;;;;;;;0.00;0.00;;;;;;;;;;1737442;28;20610;-64
2022/06/08 01:56:15;;;;;;;0.00;0.00;;;;;;;;;;1739257;28;20227;-65
2022/06/08 01:57:11;;;;;;;0.00;0.00;;;;;;;;;;1740087;28;20203;-65
2022/06/08 01:58:04;;;;;;;0.00;0.00;;;;;;;;;;1738920;28;20758;-65
2022/06/08 01:59:02;;;;;;;0.00;0.00;;;;;;;;;;1739871;28;20199;-64
2022/06/08 01:59:58;;;;;;;0.00;0.00;;;;;;;;;;1739138;28;20191;-66
2022/06/08 02:00:53;;;;;;;0.00;0.00;;;;;;;;;;1737375;28;20231;-66
2022/06/08 02:01:47;;;;;;;0.00;0.00;;;;;;;;;;1740143;28;20302;-62
2022/06/08 02:02:43;;;;;;;0.00;0.00;;;;;;;;;;1738604;28;20296;-63
2022/06/08 02:03:38;;;;;;;0.00;0.00;;;;;;;;;;1740068;28;20340;-63
2022/06/08 02:04:32;;;;;;;0.00;0.00;;;;;;;;;;1738310;28;20622;-63
2022/06/08 02:05:28;;;;;;;0.00;0.00;;;;;;;;;;1736741;28;20199;-64
2022/06/08 02:06:23;;;;;;;0.00;0.00;;;;;;;;;;1739291;28;20211;-63
2022/06/08 02:07:19;;;;;;;0.00;0.00;;;;;;;;;;1738960;28;20778;-63
2022/06/08 02:08:14;;;;;;;0.00;0.00;;;;;;;;;;1739857;28;20638;-64
2022/06/08 02:09:09;;;;;;;0.00;0.00;;;;;;;;;;1739183;28;20203;-63
2022/06/08 02:10:04;;;;;;;0.00;0.00;;;;;;;;;;1739039;28;20211;-63
2022/06/08 02:10:58;;;;;;;0.00;0.00;;;;;;;;;;1735912;28;20349;-64
2022/06/08 02:11:55;;;;;;;0.10;0.10;;;;;;;;;;1738818;28;20261;-64
2022/06/08 02:12:50;;;;;;;0.00;0.00;;;;;;;;;;1738859;28;20199;-63
2022/06/08 02:13:45;;;;;;;0.00;0.00;;;;;;;;;;1739812;28;20202;-64
2022/06/08 02:14:41;;;;;;;0.00;0.00;;;;;;;;;;1732365;28;20216;-63
2022/06/08 02:15:35;;;;;;;0.00;0.00;;;;;;;;;;1737827;28;20238;-63
2022/06/08 02:16:29;;;;;;;0.00;0.00;;;;;;;;;;1738491;28;20199;-63
2022/06/08 02:17:23;;;;;;;0.00;0.00;;;;;;;;;;1737423;28;20637;-63
2022/06/08 02:18:17;;;;;;;0.00;0.00;;;;;;;;;;1739104;28;20207;-63
2022/06/08 02:19:12;;;;;;;0.00;0.00;;;;;;;;;;1738670;28;20681;-63
2022/06/08 02:20:07;;;;;;;0.00;0.00;;;;;;;;;;1739749;28;20214;-64
2022/06/08 02:21:01;;;;;;;0.00;0.00;;;;;;;;;;1736884;28;20296;-64
2022/06/08 02:21:55;;;;;;;0.00;0.00;;;;;;;;;;1739627;28;20202;-63
2022/06/08 02:22:51;;;;;;;0.00;0.00;;;;;;;;;;1738622;28;20210;-63
2022/06/08 02:23:46;;;;;;;0.00;0.00;;;;;;;;;;1738984;28;20286;-64
2022/06/08 02:24:42;;;;;;;0.00;0.00;;;;;;;;;;1732650;28;20195;-64
2022/06/08 02:25:36;;;;;;;0.00;0.00;;;;;;;;;;1738108;28;20238;-64
2022/06/08 02:26:30;;;;;;;0.00;0.00;;;;;;;;;;1739152;28;20223;-64
2022/06/08 02:27:25;;;;;;;0.00;0.00;;;;;;;;;;1738207;28;20245;-63
2022/06/08 02:28:22;;;;;;;0.00;0.00;;;;;;;;;;1739881;28;20664;-64
2022/06/08 02:29:15;;;;;;;0.00;0.00;;;;;;;;;;1736196;28;20780;-63
2022/06/08 02:30:10;;;;;;;0.00;0.00;;;;;;;;;;1738296;28;20206;-63
2022/06/08 02:31:03;;;;;;;0.00;0.00;;;;;;;;;;1737787;28;20265;-63
2022/06/08 02:31:58;;;;;;;0.00;0.00;;;;;;;;;;1740106;28;20198;-64
2022/06/08 02:35:15;;;;;;;0.00;0.00;;;;;;;;;;1736565;28;20439;-63
2022/06/08 02:36:11;;;;;;;0.00;0.00;;;;;;;;;;1738555;28;20446;-64
2022/06/08 02:37:09;;;;;;;0.00;0.00;;;;;;;;;;1738627;28;20207;-64
2022/06/08 02:38:06;;;;;;;0.00;0.00;;;;;;;;;;1732177;28;20195;-63
2022/06/08 02:38:59;;;;;;;0.00;0.00;;;;;;;;;;1738974;28;20199;-64
2022/06/08 02:39:55;;;;;;;0.00;0.00;;;;;;;;;;1739087;28;20652;-63
2022/06/08 02:40:49;;;;;;;0.00;0.00;;;;;;;;;;1737291;28;20242;-63
2022/06/08 02:41:43;;;;;;;0.00;0.00;;;;;;;;;;1738475;28;20207;-63
2022/06/08 02:42:36;;;;;;;0.00;0.00;;;;;;;;;;1738380;28;20317;-63
2022/06/08 02:43:32;;;;;;;0.00;0.00;;;;;;;;;;1735220;28;20322;-64
2022/06/08 02:44:27;;;;;;;0.00;0.00;;;;;;;;;;1738859;28;20303;-64
2022/06/08 02:45:22;;;;;;;0.00;0.00;;;;;;;;;;1736952;28;20638;-64
2022/06/08 02:46:17;;;;;;;0.00;0.00;;;;;;;;;;1738886;28;20658;-64
2022/06/08 02:47:15;;;;;;;0.00;0.00;;;;;;;;;;1738475;28;20245;-63
2022/06/08 02:48:09;;;;;;;0.00;0.00;;;;;;;;;;1738169;28;20195;-63
2022/06/08 02:49:04;;;;;;;0.00;0.00;;;;;;;;;;1739100;28;20206;-63
2022/06/08 02:49:56;;;;;;;0.00;0.00;;;;;;;;;;1739685;28;20674;-64
2022/06/08 02:50:49;;;;;;;0.00;0.00;;;;;;;;;;1737220;28;20314;-64
2022/06/08 02:51:42;;;;;;;0.00;0.00;;;;;;;;;;1738527;28;20715;-63
2022/06/08 02:52:35;;;;;;;0.00;0.00;;;;;;;;;;1737517;28;20215;-64
2022/06/08 02:53:50;;;;;;;0.00;0.00;;;;;;;;;;1738441;28;20644;-64
2022/06/08 02:54:42;;;;;;;0.00;0.00;;;;;;;;;;1731165;28;20199;-63
2022/06/08 02:55:39;;;;;;;0.00;0.00;;;;;;;;;;1736702;28;20362;-64
2022/06/08 02:56:35;;;;;;;0.00;0.00;;;;;;;;;;1738850;28;20274;-63
2022/06/08 02:57:33;;;;;;;0.00;0.00;;;;;;;;;;1738717;28;20671;-64
2022/06/08 02:58:26;;;;;;;0.00;0.00;;;;;;;;;;1738652;28;20191;-64
2022/06/08 02:59:20;;;;;;;0.00;0.00;;;;;;;;;;1738977;28;20261;-63
2022/06/08 03:00:13;;;;;;;0.00;0.00;;;;;;;;;;1739063;28;20294;-64
2022/06/08 03:01:09;;;;;;;0.00;0.00;;;;;;;;;;1736548;28;20238;-64
2022/06/08 03:02:06;;;;;;;0.10;0.10;;;;;;;;;;1738785;28;20203;-64
2022/06/08 03:02:59;;;;;;;0.00;0.00;;;;;;;;;;1718264;28;20944;-64
2022/06/08 03:03:54;;;;;;;0.00;0.00;;;;;;;;;;1724928;28;20299;-63
2022/06/08 03:04:48;;;;;;;0.00;0.00;;;;;;;;;;1725205;28;20204;-64
2022/06/08 03:05:43;;;;;;;0.00;0.00;;;;;;;;;;1724747;28;20254;-64
2022/06/08 03:06:36;;;;;;;0.00;0.00;;;;;;;;;;1724332;28;20212;-64
2022/06/08 03:07:31;;;;;;;0.00;0.00;;;;;;;;;;1724389;28;20208;-64
2022/06/08 03:08:24;;;;;;;0.00;0.00;;;;;;;;;;1725121;28;20242;-64
2022/06/08 03:09:18;;;;;;;0.00;0.00;;;;;;;;;;1725188;28;20220;-63
2022/06/08 03:10:10;;;;;;;0.00;0.00;;;;;;;;;;1724785;28;20343;-63
2022/06/08 03:11:06;;;;;;;0.00;0.00;;;;;;;;;;1721469;28;20232;-64
2022/06/08 03:11:59;;;;;;;0.00;0.00;;;;;;;;;;1724616;28;20293;-64
2022/06/08 03:12:53;;;;;;;0.00;0.00;;;;;;;;;;1724363;28;20622;-64
2022/06/08 03:13:53;;;;;;;0.00;0.00;;;;;;;;;;1724439;28;20738;-64
2022/06/08 03:14:47;;;;;;;0.00;0.00;;;;;;;;;;1718792;28;20545;-64
2022/06/08 03:15:40;;;;;;;0.00;0.00;;;;;;;;;;1722133;28;20235;-62
2022/06/08 03:16:34;;;;;;;0.00;0.00;;;;;;;;;;1725254;28;20184;-63
2022/06/08 03:17:27;;;;;;;0.00;0.00;;;;;;;;;;1724665;28;20311;-63
2022/06/08 03:18:19;;;;;;;0.00;0.00;;;;;;;;;;1725950;28;20204;-63
2022/06/08 03:19:11;;;;;;;0.00;0.00;;;;;;;;;;1724343;28;20231;-64
2022/06/08 03:20:04;;;;;;;0.00;0.00;;;;;;;;;;1725284;28;20628;-64
2022/06/08 03:20:57;;;;;;;0.00;0.00;;;;;;;;;;1723348;28;20236;-63
2022/06/08 03:21:49;;;;;;;0.00;0.00;;;;;;;;;;1725430;28;20208;-64
2022/06/08 03:22:41;;;;;;;0.00;0.00;;;;;;;;;;1723018;28;20625;-64
2022/06/08 03:23:33;;;;;;;0.00;0.00;;;;;;;;;;1724848;28;20232;-63
2022/06/08 03:24:25;;;;;;;0.00;0.00;;;;;;;;;;1725323;28;20291;-64
2022/06/08 03:25:17;;;;;;;0.00;0.00;;;;;;;;;;1724010;28;20557;-64
2022/06/08 03:26:10;;;;;;;0.00;0.00;;;;;;;;;;1724651;28;20196;-64
2022/06/08 03:27:03;;;;;;;0.00;0.00;;;;;;;;;;1724672;28;20238;-63
2022/06/08 03:27:54;;;;;;;0.00;0.00;;;;;;;;;;1724865;28;20208;-64
2022/06/08 03:28:46;;;;;;;0.00;0.00;;;;;;;;;;1725304;28;20215;-62
2022/06/08 03:29:38;;;;;;;0.00;0.00;;;;;;;;;;1720605;28;20205;-64
2022/06/08 03:30:30;;;;;;;0.00;0.00;;;;;;;;;;1724573;28;20204;-64
2022/06/08 03:31:21;;;;;;;0.00;0.00;;;;;;;;;;1725153;28;20544;-62
2022/06/08 03:32:14;;;;;;;0.00;0.00;;;;;;;;;;1723712;28;20517;-64
2022/06/08 03:33:05;;;;;;;0.00;0.00;;;;;;;;;;1724803;28;20914;-64
2022/06/08 03:33:57;;;;;;;0.00;0.00;;;;;;;;;;1725592;28;20224;-64
2022/06/08 03:34:49;;;;;;;0.00;0.00;;;;;;;;;;1725198;28;20358;-64
2022/06/08 03:35:42;;;;;;;0.00;0.00;;;;;;;;;;1724245;28;20756;-64
2022/06/08 03:36:34;;;;;;;0.00;0.00;;;;;;;;;;1725210;28;20212;-64
2022/06/08 03:37:25;;;;;;;0.00;0.00;;;;;;;;;;1724788;28;20227;-64
2022/06/08 03:38:18;;;;;;;0.00;0.00;;;;;;;;;;1724062;28;20209;-64
2022/06/08 03:39:09;;;;;;;0.00;0.00;;;;;;;;;;1724704;28;20256;-63
2022/06/08 03:40:01;;;;;;;0.00;0.00;;;;;;;;;;1725110;28;20204;-63
2022/06/08 03:40:53;;;;;;;0.00;0.00;;;;;;;;;;1722352;28;20272;-64
2022/06/08 03:41:46;;;;;;;0.00;0.00;;;;;;;;;;1725025;28;20714;-63
2022/06/08 03:42:38;;;;;;;0.00;0.00;;;;;;;;;;1724471;28;20228;-64
2022/06/08 03:43:30;;;;;;;0.00;0.00;;;;;;;;;;1725135;28;20262;-64
2022/06/08 03:44:21;;;;;;;0.00;0.00;;;;;;;;;;1723667;28;20200;-63
2022/06/08 03:45:13;;;;;;;0.00;0.00;;;;;;;;;;1723734;28;20204;-64
2022/06/08 03:46:06;;;;;;;0.00;0.00;;;;;;;;;;1724164;28;20227;-64
2022/06/08 03:47:01;;;;;;;0.00;0.00;;;;;;;;;;1725369;28;20758;-64
2022/06/08 03:47:53;;;;;;;0.00;0.00;;;;;;;;;;1725158;28;20211;-64
2022/06/08 03:48:46;;;;;;;0.00;0.00;;;;;;;;;;1724795;28;20212;-63
2022/06/08 03:49:37;;;;;;;0.00;0.00;;;;;;;;;;1718575;28;20286;-64
2022/06/08 03:50:31;;;;;;;0.00;0.00;;;;;;;;;;1723635;28;20503;-64
2022/06/08 03:51:22;;;;;;;0.00;0.00;;;;;;;;;;1727406;28;20369;-63
2022/06/08 03:52:15;;;;;;;0.00;0.00;;;;;;;;;;1725647;28;20709;-64
2022/06/08 03:53:07;;;;;;;0.00;0.00;;;;;;;;;;1724541;28;20338;-63
2022/06/08 03:54:01;;;;;;;0.00;0.00;;;;;;;;;;1725521;28;20196;-63
2022/06/08 03:54:55;;;;;;;0.00;0.00;;;;;;;;;;1724686;28;20219;-63
2022/06/08 03:55:49;;;;;;;0.00;0.00;;;;;;;;;;1723015;28;20236;-63
2022/06/08 03:56:41;;;;;;;0.00;0.00;;;;;;;;;;1724228;28;20731;-63
2022/06/08 03:57:34;;;;;;;0.00;0.00;;;;;;;;;;1723036;28;20254;-63
2022/06/08 03:58:26;;;;;;;0.00;0.00;;;;;;;;;;1725800;28;20254;-64
2022/06/08 03:59:18;;;;;;;0.00;0.00;;;;;;;;;;1724799;28;20200;-62
2022/06/08 04:00:10;;;;;;;0.00;0.00;;;;;;;;;;1725849;28;20287;-64
2022/06/08 04:01:03;;;;;;;0.00;0.00;;;;;;;;;;1723114;28;20263;-64
2022/06/08 04:01:55;;;;;;;0.00;0.00;;;;;;;;;;1726127;28;20298;-62
2022/06/08 04:02:48;;;;;;;0.00;0.00;;;;;;;;;;1735038;28;20238;-63
2022/06/08 04:03:39;;;;;;;0.00;0.00;;;;;;;;;;1737907;28;20268;-63
2022/06/08 04:04:31;;;;;;;0.00;0.00;;;;;;;;;;1738637;28;20210;-64
2022/06/08 04:05:23;;;;;;;0.00;0.00;;;;;;;;;;1737245;28;20723;-64
2022/06/08 04:06:15;;;;;;;0.00;0.00;;;;;;;;;;1738739;28;20195;-64
2022/06/08 04:07:07;;;;;;;0.00;0.00;;;;;;;;;;1737825;28;20227;-63
2022/06/08 04:07:59;;;;;;;0.00;0.00;;;;;;;;;;1738786;28;20199;-64
2022/06/08 04:08:51;;;;;;;0.00;0.00;;;;;;;;;;1738539;28;20348;-62
2022/06/08 04:09:43;;;;;;;0.00;0.00;;;;;;;;;;1737769;28;20203;-63
2022/06/08 04:10:35;;;;;;;0.00;0.00;;;;;;;;;;1736585;28;21846;-64
2022/06/08 04:11:27;;;;;;;0.00;0.00;;;;;;;;;;1737793;28;20566;-64
2022/06/08 04:12:22;;;;;;;0.00;0.00;;;;;;;;;;1739382;28;20310;-63
2022/06/08 04:13:16;;;;;;;0.00;0.00;;;;;;;;;;1738952;28;20630;-63
2022/06/08 04:14:07;;;;;;;0.00;0.00;;;;;;;;;;1738534;28;20203;-63
2022/06/08 04:14:59;;;;;;;0.00;0.00;;;;;;;;;;1739925;28;20199;-63
2022/06/08 04:15:51;;;;;;;0.00;0.00;;;;;;;;;;1735543;28;20586;-65
2022/06/08 04:16:43;;;;;;;0.00;0.00;;;;;;;;;;1738015;28;20211;-64
2022/06/08 04:17:34;;;;;;;0.00;0.00;;;;;;;;;;1737121;28;20643;-63
2022/06/08 04:18:27;;;;;;;0.00;0.00;;;;;;;;;;1738604;28;20297;-64
2022/06/08 04:19:18;;;;;;;0.00;0.00;;;;;;;;;;1740354;28;20263;-63
2022/06/08 04:20:11;;;;;;;0.00;0.00;;;;;;;;;;1739021;28;20729;-64
2022/06/08 04:21:04;;;;;;;0.00;0.00;;;;;;;;;;1735041;28;20258;-63
2022/06/08 04:21:57;;;;;;;0.00;0.00;;;;;;;;;;1737034;28;20210;-63
2022/06/08 04:22:48;;;;;;;0.00;0.00;;;;;;;;;;1737875;28;20260;-64
2022/06/08 04:23:40;;;;;;;0.00;0.00;;;;;;;;;;1739293;28;20301;-63
2022/06/08 04:24:33;;;;;;;0.00;0.00;;;;;;;;;;1738557;28;20207;-64
2022/06/08 04:25:24;;;;;;;0.00;0.00;;;;;;;;;;1737084;28;20344;-64
2022/06/08 04:26:17;;;;;;;0.00;0.00;;;;;;;;;;1738393;28;20665;-64
2022/06/08 04:27:09;;;;;;;0.00;0.00;;;;;;;;;;1737859;28;20280;-63
2022/06/08 04:28:01;;;;;;;0.00;0.00;;;;;;;;;;1737926;28;20620;-64
2022/06/08 04:28:53;;;;;;;0.00;0.00;;;;;;;;;;1738384;28;20384;-64
2022/06/08 04:29:48;;;;;;;0.00;0.00;;;;;;;;;;1735208;28;20304;-64
2022/06/08 04:30:39;;;;;;;0.00;0.00;;;;;;;;;;1737182;28;20230;-64
2022/06/08 04:31:33;;;;;;;0.00;0.00;;;;;;;;;;1738388;28;20203;-64
2022/06/08 04:32:24;;;;;;;0.00;0.00;;;;;;;;;;1738154;28;20242;-63
2022/06/08 04:33:16;;;;;;;0.00;0.00;;;;;;;;;;1738435;28;20321;-63
2022/06/08 04:34:09;;;;;;;0.00;0.00;;;;;;;;;;1737569;28;20900;-63
2022/06/08 04:35:01;;;;;;;0.00;0.00;;;;;;;;;;1737761;28;20206;-63
2022/06/08 04:35:52;;;;;;;0.00;0.00;;;;;;;;;;1736545;28;20614;-64
2022/06/08 04:36:44;;;;;;;0.00;0.00;;;;;;;;;;1739171;28;20198;-64
2022/06/08 04:37:37;;;;;;;0.00;0.00;;;;;;;;;;1738216;28;20207;-63
2022/06/08 04:38:30;;;;;;;0.00;0.00;;;;;;;;;;1738248;28;20259;-63
2022/06/08 04:39:21;;;;;;;0.00;0.00;;;;;;;;;;1738530;28;20206;-62
2022/06/08 04:40:15;;;;;;;0.00;0.00;;;;;;;;;;1739373;28;20627;-63
2022/06/08 04:41:07;;;;;;;0.00;0.00;;;;;;;;;;1736056;28;20234;-64
2022/06/08 04:41:59;;;;;;;0.00;0.00;;;;;;;;;;1738776;28;20199;-64
2022/06/08 04:42:51;;;;;;;0.00;0.00;;;;;;;;;;1738076;28;20256;-63
2022/06/08 04:43:43;;;;;;;0.00;0.00;;;;;;;;;;1738350;28;20199;-64
2022/06/08 04:44:36;;;;;;;0.00;0.00;;;;;;;;;;1738540;28;20587;-64
2022/06/08 04:45:29;;;;;;;0.00;0.00;;;;;;;;;;1736169;28;20344;-63
2022/06/08 04:46:21;;;;;;;0.00;0.00;;;;;;;;;;1738530;28;20581;-64
2022/06/08 04:47:13;;;;;;;0.00;0.00;;;;;;;;;;1736986;28;20655;-63
2022/06/08 04:48:05;;;;;;;0.00;0.00;;;;;;;;;;1738307;28;20228;-64
2022/06/08 04:48:57;;;;;;;0.00;0.00;;;;;;;;;;1738700;28;20700;-64
2022/06/08 04:49:48;;;;;;;0.00;0.00;;;;;;;;;;1738514;28;20290;-64
2022/06/08 04:50:41;;;;;;;0.00;0.00;;;;;;;;;;1738961;28;20678;-64
2022/06/08 04:51:33;;;;;;;0.00;0.00;;;;;;;;;;1736058;28;20216;-64
2022/06/08 04:52:26;;;;;;;0.00;0.00;;;;;;;;;;1737730;28;20258;-63
2022/06/08 04:53:17;;;;;;;0.00;0.00;;;;;;;;;;1737167;28;20332;-64
2022/06/08 04:54:09;;;;;;;0.00;0.00;;;;;;;;;;1737708;28;20195;-64
2022/06/08 04:55:01;;;;;;;0.00;0.00;;;;;;;;;;1739294;28;20578;-63
2022/06/08 04:55:53;;;;;;;0.00;0.00;;;;;;;;;;1736699;28;20280;-64
2022/06/08 04:56:44;;;;;;;0.00;0.00;;;;;;;;;;1738187;28;20321;-64
2022/06/08 04:57:37;;;;;;;0.00;0.00;;;;;;;;;;1738088;28;20195;-63
2022/06/08 04:58:28;;;;;;;0.00;0.00;;;;;;;;;;1738288;28;20245;-64
2022/06/08 04:59:21;;;;;;;0.00;0.00;;;;;;;;;;1737655;28;20203;-64
2022/06/08 05:00:16;;;;;;;0.00;0.00;;;;;;;;;;1737900;28;20198;-64
2022/06/08 05:01:09;;;;;;;0.00;0.00;;;;;;;;;;1736258;28;20244;-63
2022/06/08 05:02:00;;;;;;;0.00;0.00;;;;;;;;;;1737838;28;20213;-64
2022/06/08 05:02:54;;;;;;;0.00;0.00;;;;;;;;;;1737877;28;20733;-62
2022/06/08 05:03:46;;;;;;;0.00;0.00;;;;;;;;;;1739177;28;20207;-64
2022/06/08 05:04:38;;;;;;;0.00;0.00;;;;;;;;;;1737420;28;20252;-64
2022/06/08 05:05:31;;;;;;;0.00;0.00;;;;;;;;;;1736877;28;20597;-63
2022/06/08 05:06:23;;;;;;;0.00;0.00;;;;;;;;;;1738107;28;20678;-64
2022/06/08 05:07:15;;;;;;;0.00;0.00;;;;;;;;;;1737557;28;20607;-64
2022/06/08 05:08:08;;;;;;;0.00;0.00;;;;;;;;;;1738464;28;20235;-64
2022/06/08 05:08:59;;;;;;;0.00;0.00;;;;;;;;;;1738000;28;20214;-64
2022/06/08 05:09:51;;;;;;;0.00;0.00;;;;;;;;;;1738394;28;20209;-63
2022/06/08 05:10:43;;;;;;;0.00;0.00;;;;;;;;;;1737330;28;20321;-64
2022/06/08 05:11:35;;;;;;;0.00;0.00;;;;;;;;;;1738151;28;20209;-64
2022/06/08 05:12:26;;;;;;;0.00;0.00;;;;;;;;;;1737776;28;20260;-64
2022/06/08 05:13:19;;;;;;;0.00;0.00;;;;;;;;;;1738213;28;20493;-64
2022/06/08 05:14:11;;;;;;;0.00;0.00;;;;;;;;;;1737798;28;20203;-64
2022/06/08 05:15:05;;;;;;;0.00;0.00;;;;;;;;;;1738624;28;20238;-64
2022/06/08 05:15:58;;;;;;;0.00;0.00;;;;;;;;;;1736181;28;20238;-65
2022/06/08 05:16:51;;;;;;;0.00;0.00;;;;;;;;;;1739285;28;20621;-65
2022/06/08 05:17:42;;;;;;;0.00;0.00;;;;;;;;;;1737463;28;20284;-63
2022/06/08 05:18:35;;;;;;;0.00;0.00;;;;;;;;;;1738564;28;20283;-63
2022/06/08 05:19:26;;;;;;;0.00;0.00;;;;;;;;;;1738383;28;20693;-63
2022/06/08 05:20:19;;;;;;;0.00;0.00;;;;;;;;;;1737499;28;20198;-64
2022/06/08 05:21:10;;;;;;;0.00;0.00;;;;;;;;;;1739961;28;20202;-62
2022/06/08 05:22:02;;;;;;;0.00;0.00;;;;;;;;;;1739092;28;20265;-63
2022/06/08 05:22:54;;;;;;;0.00;0.00;;;;;;;;;;1738230;28;20256;-64
2022/06/08 05:23:46;;;;;;;0.00;0.00;;;;;;;;;;1739918;28;20709;-64
2022/06/08 05:24:37;;;;;;;0.00;0.00;;;;;;;;;;1737460;28;20729;-63